createdAt,value
2023-02-03T00:02:09.825Z,100576.00
2023-02-03T00:04:36.638Z,100569.00
2023-02-03T00:07:04.354Z,100571.00
2023-02-03T00:09:31.455Z,100557.00
2023-02-03T00:11:58.331Z,100571.00
2023-02-03T00:14:25.181Z,100577.00
2023-02-03T00:16:52.116Z,100571.00
2023-02-03T00:19:18.989Z,100565.00
2023-02-03T00:21:46.172Z,100555.00
2023-02-03T00:24:13.111Z,100555.00
2023-02-03T00:26:43.818Z,100553.00
2023-02-03T00:29:11.525Z,100552.00
2023-02-03T00:31:38.929Z,100552.00
2023-02-03T00:34:06.005Z,100546.00
2023-02-03T00:36:32.933Z,100549.00
2023-02-03T00:39:01.503Z,100540.00
2023-02-03T00:41:31.700Z,100544.00
2023-02-03T00:43:58.654Z,100528.00
2023-02-03T00:46:25.567Z,100533.00
2023-02-03T00:48:52.521Z,100508.00
2023-02-03T00:51:19.415Z,100524.00
2023-02-03T00:53:49.418Z,100517.00
2023-02-03T00:56:16.376Z,100513.00
2023-02-03T00:58:43.316Z,100520.00
2023-02-03T01:01:10.908Z,100506.00
2023-02-03T01:03:38.303Z,100505.00
2023-02-03T01:06:14.235Z,100498.00
2023-02-03T01:08:42.243Z,100484.00
2023-02-03T01:11:21.960Z,100471.00
2023-02-03T01:13:50.667Z,100474.00
2023-02-03T01:16:20.548Z,100468.00
2023-02-03T01:18:48.425Z,100446.00
2023-02-03T01:21:20.074Z,100444.00
2023-02-03T01:23:47.451Z,100447.00
2023-02-03T01:26:17.737Z,100429.00
2023-02-03T01:28:45.175Z,100437.00
2023-02-03T01:31:22.836Z,100437.00
2023-02-03T01:33:52.200Z,100442.00
2023-02-03T01:36:19.176Z,100424.00
2023-02-03T01:38:46.753Z,100431.00
2023-02-03T01:41:21.017Z,100434.00
2023-02-03T01:43:56.783Z,100443.00
2023-02-03T01:46:43.152Z,100431.00
2023-02-03T01:49:23.808Z,100431.00
2023-02-03T01:51:53.455Z,100428.00
2023-02-03T01:54:29.001Z,100422.00
2023-02-03T01:57:06.429Z,100428.00
2023-02-03T01:59:36.721Z,100436.00
2023-02-03T02:02:05.890Z,100416.00
2023-02-03T02:04:51.190Z,100411.00
2023-02-03T02:07:18.111Z,100406.00
2023-02-03T02:09:46.766Z,100407.00
2023-02-03T02:12:13.726Z,100401.00
2023-02-03T02:14:42.871Z,100399.00
2023-02-03T02:17:24.561Z,100397.00
2023-02-03T02:20:43.905Z,100377.00
2023-02-03T02:23:40.562Z,100374.00
2023-02-03T02:26:47.319Z,100353.00
2023-02-03T02:29:49.100Z,100342.00
2023-02-03T02:32:40.277Z,100343.00
2023-02-03T02:35:45.812Z,100344.00
2023-02-03T02:38:36.512Z,100344.00
2023-02-03T02:41:16.770Z,100335.00
2023-02-03T02:44:00.458Z,100326.00
2023-02-03T02:46:43.663Z,100342.00
2023-02-03T02:49:35.451Z,100335.00
2023-02-03T02:52:07.810Z,100342.00
2023-02-03T02:54:40.935Z,100320.00
2023-02-03T02:57:13.463Z,100334.00
2023-02-03T02:59:40.388Z,100324.00
2023-02-03T03:02:10.434Z,100324.00
2023-02-03T03:04:37.957Z,100313.00
2023-02-03T03:07:22.097Z,100310.00
2023-02-03T03:09:55.491Z,100312.00
2023-02-03T03:12:29.719Z,100304.00
2023-02-03T03:15:08.249Z,100306.00
2023-02-03T03:17:43.782Z,100279.00
2023-02-03T03:20:18.985Z,100292.00
2023-02-03T03:22:54.784Z,100287.00
2023-02-03T03:25:29.979Z,100288.00
2023-02-03T03:28:04.943Z,100290.00
2023-02-03T03:30:38.951Z,100296.00
2023-02-03T03:33:08.129Z,100282.00
2023-02-03T03:36:27.182Z,100287.00
2023-02-03T03:39:07.810Z,100284.00
2023-02-03T03:41:43.471Z,100287.00
2023-02-03T03:44:15.924Z,100291.00
2023-02-03T03:46:52.031Z,100278.00
2023-02-03T03:49:23.441Z,100286.00
2023-02-03T03:52:02.866Z,100265.00
2023-02-03T03:54:32.736Z,100281.00
2023-02-03T03:57:19.609Z,100282.00
2023-02-03T03:59:49.495Z,100267.00
2023-02-03T04:02:20.377Z,100262.00
2023-02-03T04:04:49.732Z,100259.00
2023-02-03T04:07:16.632Z,100263.00
2023-02-03T04:09:43.544Z,100248.00
2023-02-03T04:12:39.587Z,100249.00
2023-02-03T04:15:06.808Z,100254.00
2023-02-03T04:17:36.125Z,100242.00
2023-02-03T04:20:05.026Z,100236.00
2023-02-03T04:22:31.957Z,100223.00
2023-02-03T04:24:59.052Z,100233.00
2023-02-03T04:27:27.368Z,100201.00
2023-02-03T04:29:54.328Z,100226.00
2023-02-03T04:32:21.188Z,100228.00
2023-02-03T04:34:48.105Z,100205.00
2023-02-03T04:37:14.996Z,100212.00
2023-02-03T04:39:41.892Z,100211.00
2023-02-03T04:42:08.789Z,100187.00
2023-02-03T04:44:35.616Z,100204.00
2023-02-03T04:47:02.414Z,100206.00
2023-02-03T04:49:29.251Z,100201.00
2023-02-03T04:51:56.119Z,100192.00
2023-02-03T04:54:22.918Z,100185.00
2023-02-03T04:56:49.775Z,100177.00
2023-02-03T04:59:16.670Z,100175.00
2023-02-03T05:01:43.543Z,100151.00
2023-02-03T05:04:10.406Z,100136.00
2023-02-03T05:06:37.267Z,100154.00
2023-02-03T05:09:04.523Z,100148.00
2023-02-03T05:11:31.535Z,100152.00
2023-02-03T05:13:58.756Z,100145.00
2023-02-03T05:16:25.657Z,100138.00
2023-02-03T05:18:52.470Z,100139.00
2023-02-03T05:21:19.335Z,100133.00
2023-02-03T05:23:46.416Z,100130.00
2023-02-03T05:26:13.347Z,100132.00
2023-02-03T05:28:40.169Z,100112.00
2023-02-03T05:31:07.156Z,100113.00
2023-02-03T05:33:34.246Z,100118.00
2023-02-03T05:36:01.060Z,100113.00
2023-02-03T05:38:28.133Z,100111.00
2023-02-03T05:41:13.367Z,100098.00
2023-02-03T05:43:40.203Z,100089.00
2023-02-03T05:46:07.939Z,100093.00
2023-02-03T05:48:35.412Z,100088.00
2023-02-03T05:51:02.371Z,100077.00
2023-02-03T05:53:29.370Z,100069.00
2023-02-03T05:55:56.236Z,100075.00
2023-02-03T05:58:23.306Z,100067.00
2023-02-03T06:00:50.226Z,100052.00
2023-02-03T06:03:17.218Z,100060.00
2023-02-03T06:05:44.963Z,100047.00
2023-02-03T06:08:11.943Z,100048.00
2023-02-03T06:10:38.905Z,100046.00
2023-02-03T06:13:23.763Z,100045.00
2023-02-03T06:15:50.572Z,100005.00
2023-02-03T06:18:17.417Z,100033.00
2023-02-03T06:20:44.276Z,100029.00
2023-02-03T06:23:11.498Z,100029.00
2023-02-03T06:25:38.341Z,100022.00
2023-02-03T06:28:05.535Z,100019.00
2023-02-03T06:30:32.436Z,100009.00
2023-02-03T06:32:59.285Z,99957.00
2023-02-03T06:35:26.135Z,99996.00
2023-02-03T06:37:53.041Z,99949.00
2023-02-03T06:40:20.151Z,99977.00
2023-02-03T06:42:48.181Z,99966.00
2023-02-03T06:45:15.533Z,99939.00
2023-02-03T06:47:44.409Z,99935.00
2023-02-03T06:50:15.748Z,99960.00
2023-02-03T06:52:43.253Z,99943.00
2023-02-03T06:55:11.013Z,99942.00
2023-02-03T06:57:45.564Z,99936.00
2023-02-03T07:00:16.765Z,99940.00
2023-02-03T07:02:45.678Z,99921.00
2023-02-03T07:05:12.614Z,99923.00
2023-02-03T07:07:39.557Z,99910.00
2023-02-03T07:10:08.078Z,99912.00
2023-02-03T07:12:36.586Z,99898.00
2023-02-03T07:15:05.385Z,99893.00
2023-02-03T07:17:32.293Z,99897.00
2023-02-03T07:20:01.642Z,99896.00
2023-02-03T07:22:28.509Z,99891.00
2023-02-03T07:24:55.428Z,99852.00
2023-02-03T07:27:22.272Z,99869.00
2023-02-03T07:29:49.083Z,99871.00
2023-02-03T07:32:15.992Z,99864.00
2023-02-03T07:34:42.840Z,99817.00
2023-02-03T07:37:09.717Z,99855.00
2023-02-03T07:39:36.563Z,99845.00
2023-02-03T07:42:03.528Z,99846.00
2023-02-03T07:44:30.551Z,99838.00
2023-02-03T07:46:57.539Z,99834.00
2023-02-03T07:49:24.420Z,99717.00
2023-02-03T07:51:51.297Z,99809.00
2023-02-03T07:54:18.277Z,99796.00
2023-02-03T07:56:46.577Z,99789.00
2023-02-03T07:59:13.556Z,99788.00
2023-02-03T08:01:40.400Z,99783.00
2023-02-03T08:04:07.448Z,99772.00
2023-02-03T08:06:34.732Z,99764.00
2023-02-03T08:09:01.638Z,99769.00
2023-02-03T08:11:28.563Z,99771.00
2023-02-03T08:13:55.431Z,99765.00
2023-02-03T08:16:22.430Z,99760.00
2023-02-03T08:18:49.315Z,99761.00
2023-02-03T08:21:16.387Z,99742.00
2023-02-03T08:23:43.262Z,99744.00
2023-02-03T08:26:10.104Z,99747.00
2023-02-03T08:28:36.995Z,99739.00
2023-02-03T08:31:11.148Z,99736.00
2023-02-03T08:33:38.643Z,99707.00
2023-02-03T08:36:06.417Z,99717.00
2023-02-03T08:38:33.600Z,99717.00
2023-02-03T08:41:00.458Z,99681.00
2023-02-03T08:43:27.419Z,99695.00
2023-02-03T08:45:54.363Z,99688.00
2023-02-03T08:48:21.317Z,99688.00
2023-02-03T08:50:52.771Z,99666.00
2023-02-03T08:53:19.773Z,99662.00
2023-02-03T08:55:46.609Z,99647.00
2023-02-03T08:58:13.494Z,99647.00
2023-02-03T09:00:41.834Z,99646.00
2023-02-03T09:03:11.679Z,99635.00
2023-02-03T09:05:38.656Z,99640.00
2023-02-03T09:08:05.835Z,99631.00
2023-02-03T09:10:32.666Z,99633.00
2023-02-03T09:12:59.506Z,99622.00
2023-02-03T09:15:27.017Z,99609.00
2023-02-03T09:17:55.333Z,99612.00
2023-02-03T09:20:23.533Z,99602.00
2023-02-03T09:22:50.451Z,99583.00
2023-02-03T09:25:17.703Z,99584.00
2023-02-03T09:27:44.586Z,99572.00
2023-02-03T09:30:13.565Z,99571.00
2023-02-03T09:32:40.416Z,99567.00
2023-02-03T09:35:07.493Z,99549.00
2023-02-03T09:37:34.379Z,99547.00
2023-02-03T09:40:01.214Z,99556.00
2023-02-03T09:42:52.901Z,99543.00
2023-02-03T09:45:30.622Z,99535.00
2023-02-03T09:48:09.237Z,99498.00
2023-02-03T09:50:40.542Z,99512.00
2023-02-03T09:53:30.133Z,99504.00
2023-02-03T09:55:59.465Z,99463.00
2023-02-03T09:58:32.970Z,99475.00
2023-02-03T10:01:05.632Z,99458.00
2023-02-03T10:03:58.210Z,99455.00
2023-02-03T10:06:43.132Z,99416.00
2023-02-03T10:09:19.630Z,99436.00
2023-02-03T10:12:20.649Z,99415.00
2023-02-03T10:15:04.229Z,99413.00
2023-02-03T10:17:36.967Z,99397.00
2023-02-03T10:20:22.079Z,99390.00
2023-02-03T10:22:59.771Z,99384.00
2023-02-03T10:25:33.960Z,99374.00
2023-02-03T10:28:09.609Z,99357.00
2023-02-03T10:31:16.027Z,99354.00
2023-02-03T10:33:42.904Z,99348.00
2023-02-03T10:36:23.598Z,99335.00
2023-02-03T10:39:01.778Z,99326.00
2023-02-03T10:41:31.000Z,99312.00
2023-02-03T10:44:04.118Z,99305.00
2023-02-03T10:46:35.340Z,99287.00
2023-02-03T10:49:02.582Z,99282.00
2023-02-03T10:52:04.917Z,99275.00
2023-02-03T10:54:35.402Z,99267.00
2023-02-03T10:57:07.243Z,99247.00
2023-02-03T10:59:41.085Z,99240.00
2023-02-03T11:02:30.240Z,99229.00
2023-02-03T11:05:24.922Z,99221.00
2023-02-03T11:07:53.096Z,99204.00
2023-02-03T11:10:36.281Z,99195.00
2023-02-03T11:13:21.575Z,99178.00
2023-02-03T11:16:10.610Z,99178.00
2023-02-03T11:18:48.559Z,99157.00
2023-02-03T11:21:33.822Z,99148.00
2023-02-03T11:24:36.950Z,99147.00
2023-02-03T11:27:11.690Z,99138.00
2023-02-03T11:29:44.794Z,99122.00
2023-02-03T11:32:33.107Z,99126.00
2023-02-03T11:35:15.216Z,99115.00
2023-02-03T11:37:49.058Z,99102.00
2023-02-03T11:40:15.908Z,99103.00
2023-02-03T11:42:46.263Z,99097.00
2023-02-03T11:45:41.841Z,99087.00
2023-02-03T11:48:21.475Z,99076.00
2023-02-03T11:51:19.016Z,99069.00
2023-02-03T11:54:17.293Z,99056.00
2023-02-03T11:57:05.190Z,99032.00
2023-02-03T12:00:03.470Z,99033.00
2023-02-03T12:03:12.548Z,99027.00
2023-02-03T12:05:47.960Z,99030.00
2023-02-03T12:08:32.821Z,99022.00
2023-02-03T12:11:02.656Z,99006.00
2023-02-03T12:13:44.742Z,99014.00
2023-02-03T12:16:35.996Z,99004.00
2023-02-03T12:19:19.496Z,99006.00
2023-02-03T12:22:02.928Z,98996.00
2023-02-03T12:25:20.119Z,99003.00
2023-02-03T12:28:01.599Z,98990.00
2023-02-03T12:30:38.504Z,98988.00
2023-02-03T12:33:23.360Z,98985.00
2023-02-03T12:36:18.483Z,98985.00
2023-02-03T12:39:10.769Z,98978.00
2023-02-03T12:42:05.887Z,98974.00
2023-02-03T12:44:44.552Z,98968.00
2023-02-03T12:47:28.277Z,98968.00
2023-02-03T12:50:07.091Z,98972.00
2023-02-03T12:52:48.245Z,98968.00
2023-02-03T12:55:55.848Z,98965.00
2023-02-03T12:58:52.019Z,98964.00
2023-02-03T13:01:24.724Z,98950.00
2023-02-03T13:04:20.979Z,98941.00
2023-02-03T13:07:12.892Z,98945.00
2023-02-03T13:10:14.316Z,98939.00
2023-02-03T13:12:51.735Z,98937.00
2023-02-03T13:15:43.297Z,98939.00
2023-02-03T13:18:26.383Z,98929.00
2023-02-03T13:20:54.552Z,98945.00
2023-02-03T13:23:22.848Z,98929.00
2023-02-03T13:26:48.472Z,98925.00
2023-02-03T13:29:39.695Z,98916.00
2023-02-03T13:32:38.280Z,98911.00
2023-02-03T13:35:35.276Z,98925.00
2023-02-03T13:38:39.159Z,98926.00
2023-02-03T13:41:15.899Z,98917.00
2023-02-03T13:43:51.304Z,98913.00
2023-02-03T13:46:27.950Z,98918.00
2023-02-03T13:48:59.991Z,98915.00
2023-02-03T13:51:46.045Z,98909.00
2023-02-03T13:54:33.446Z,98917.00
2023-02-03T13:57:35.136Z,98929.00
2023-02-03T14:00:45.575Z,98926.00
2023-02-03T14:03:36.575Z,98923.00
2023-02-03T14:06:03.692Z,98915.00
2023-02-03T14:08:30.482Z,98909.00
2023-02-03T14:11:34.417Z,98901.00
2023-02-03T14:14:07.510Z,98899.00
2023-02-03T14:16:49.577Z,98908.00
2023-02-03T14:19:22.747Z,98917.00
2023-02-03T14:21:56.008Z,98874.00
2023-02-03T14:24:29.875Z,98901.00
2023-02-03T14:27:00.846Z,98915.00
2023-02-03T14:29:36.656Z,98910.00
2023-02-03T14:32:09.678Z,98896.00
2023-02-03T14:34:42.158Z,98905.00
2023-02-03T14:37:32.713Z,98908.00
2023-02-03T14:40:27.426Z,98918.00
2023-02-03T14:43:18.923Z,98916.00
2023-02-03T14:46:20.991Z,98926.00
2023-02-03T14:49:28.304Z,98936.00
2023-02-03T14:52:32.697Z,98940.00
2023-02-03T14:55:02.554Z,98934.00
2023-02-03T14:57:47.768Z,98930.00
2023-02-03T15:00:21.664Z,98937.00
2023-02-03T15:03:07.684Z,98934.00
2023-02-03T15:05:38.912Z,98933.00
2023-02-03T15:08:33.221Z,98938.00
2023-02-03T15:11:01.105Z,98936.00
2023-02-03T15:13:32.240Z,98950.00
2023-02-03T15:16:03.324Z,98958.00
2023-02-03T15:18:36.769Z,98954.00
2023-02-03T15:21:05.357Z,98944.00
2023-02-03T15:23:48.446Z,98947.00
2023-02-03T15:26:19.957Z,98949.00
2023-02-03T15:28:59.592Z,98939.00
2023-02-03T15:31:49.708Z,98956.00
2023-02-03T15:34:25.118Z,98954.00
2023-02-03T15:36:57.892Z,98964.00
2023-02-03T15:39:45.442Z,98964.00
2023-02-03T15:42:32.198Z,98970.00
2023-02-03T15:45:18.314Z,98984.00
2023-02-03T15:48:01.626Z,98981.00
2023-02-03T15:50:40.130Z,98989.00
2023-02-03T15:53:25.012Z,98998.00
2023-02-03T15:55:59.493Z,98993.00
2023-02-03T15:58:38.733Z,99002.00
2023-02-03T16:01:17.719Z,98992.00
2023-02-03T16:03:56.790Z,99015.00
2023-02-03T16:06:37.103Z,99012.00
2023-02-03T16:09:07.079Z,99019.00
2023-02-03T16:11:38.616Z,98990.00
2023-02-03T16:14:12.220Z,99007.00
2023-02-03T16:16:55.222Z,99013.00
2023-02-03T16:19:34.147Z,99024.00
2023-02-03T16:22:01.347Z,99033.00
2023-02-03T16:24:45.846Z,99047.00
2023-02-03T16:27:27.527Z,99051.00
2023-02-03T16:30:38.733Z,99062.00
2023-02-03T16:33:34.919Z,99064.00
2023-02-03T16:36:32.825Z,99062.00
2023-02-03T16:39:29.325Z,99073.00
2023-02-03T16:42:18.477Z,99051.00
2023-02-03T16:45:04.925Z,99084.00
2023-02-03T16:47:51.440Z,99085.00
2023-02-03T16:50:40.773Z,99090.00
2023-02-03T16:53:16.421Z,99084.00
2023-02-03T16:55:45.999Z,99100.00
2023-02-03T16:58:13.426Z,99101.00
2023-02-03T17:00:45.567Z,99105.00
2023-02-03T17:03:15.538Z,99071.00
2023-02-03T17:05:45.291Z,99111.00
2023-02-03T17:08:13.583Z,99117.00
2023-02-03T17:10:43.931Z,99117.00
2023-02-03T17:13:12.372Z,99105.00
2023-02-03T17:15:48.922Z,99109.00
2023-02-03T17:18:16.370Z,99120.00
2023-02-03T17:20:45.256Z,99124.00
2023-02-03T17:23:16.261Z,99135.00
2023-02-03T17:25:50.550Z,99144.00
2023-02-03T17:28:18.007Z,99147.00
2023-02-03T17:30:45.344Z,99151.00
2023-02-03T17:33:14.341Z,99157.00
2023-02-03T17:35:44.407Z,99154.00
2023-02-03T17:38:14.930Z,99161.00
2023-02-03T17:54:43.468Z,99182.00
2023-02-03T17:57:10.359Z,99189.00
2023-02-03T17:59:38.152Z,99185.00
2023-02-03T18:02:05.143Z,99192.00
2023-02-03T18:04:32.435Z,99208.00
2023-02-03T18:06:59.430Z,99210.00
2023-02-03T18:09:26.574Z,99207.00
2023-02-03T18:11:53.696Z,99209.00
2023-02-03T18:14:20.673Z,99224.00
2023-02-03T18:16:47.830Z,99235.00
2023-02-03T18:19:16.568Z,99241.00
2023-02-03T18:21:44.252Z,99239.00
2023-02-03T18:24:13.922Z,99201.00
2023-02-03T18:26:51.859Z,99232.00
2023-02-03T18:29:19.325Z,99234.00
2023-02-03T18:31:47.933Z,99243.00
2023-02-03T18:34:16.999Z,99233.00
2023-02-03T18:36:45.215Z,99234.00
2023-02-03T18:39:14.686Z,99219.00
2023-02-03T18:41:41.799Z,99212.00
2023-02-03T18:44:09.117Z,99223.00
2023-02-03T18:46:36.041Z,99237.00
2023-02-03T18:49:03.588Z,99249.00
2023-02-03T18:51:30.649Z,99253.00
2023-02-03T18:53:59.670Z,99268.00
2023-02-03T18:56:35.802Z,99275.00
2023-02-03T18:59:09.758Z,99262.00
2023-02-03T19:01:38.912Z,99297.00
2023-02-03T19:04:07.282Z,99307.00
2023-02-03T19:06:35.824Z,99320.00
2023-02-03T19:09:05.865Z,99329.00
2023-02-03T19:11:33.764Z,99334.00
2023-02-03T19:14:00.765Z,99351.00
2023-02-03T19:16:27.904Z,99356.00
2023-02-03T19:18:54.888Z,99358.00
2023-02-03T19:21:21.783Z,99354.00
2023-02-03T19:23:48.853Z,99364.00
2023-02-03T19:26:15.760Z,99371.00
2023-02-03T19:28:42.878Z,99380.00
2023-02-03T19:31:15.599Z,99386.00
2023-02-03T19:33:42.887Z,99395.00
2023-02-03T19:36:11.783Z,99396.00
2023-02-03T19:38:38.908Z,99401.00
2023-02-03T19:41:07.581Z,99401.00
2023-02-03T19:43:35.073Z,99422.00
2023-02-03T19:46:02.791Z,99423.00
2023-02-03T19:48:29.922Z,99428.00
2023-02-03T19:50:57.274Z,99441.00
2023-02-03T19:53:24.697Z,99442.00
2023-02-03T19:55:52.677Z,99446.00
2023-02-03T19:58:19.735Z,99454.00
2023-02-03T20:00:46.957Z,99440.00
2023-02-03T20:03:14.248Z,99445.00
2023-02-03T20:05:41.220Z,99453.00
2023-02-03T20:08:13.097Z,99475.00
2023-02-03T20:10:42.581Z,99471.00
2023-02-03T20:13:10.942Z,99475.00
2023-02-03T20:15:38.361Z,99479.00
2023-02-03T20:18:08.121Z,99507.00
2023-02-03T20:20:36.522Z,99488.00
2023-02-03T20:23:03.803Z,99538.00
2023-02-03T20:25:30.946Z,99497.00
2023-02-03T20:27:59.612Z,99547.00
2023-02-03T20:30:26.998Z,99561.00
2023-02-03T20:32:59.509Z,99560.00
2023-02-03T20:35:27.509Z,99548.00
2023-02-03T20:37:54.537Z,99577.00
2023-02-03T20:40:24.173Z,99588.00
2023-02-03T20:42:53.193Z,99588.00
2023-02-03T20:45:23.345Z,99614.00
2023-02-03T20:47:51.650Z,99608.00
2023-02-03T20:50:25.245Z,99610.00
2023-02-03T20:52:56.195Z,99631.00
2023-02-03T20:55:24.427Z,99640.00
2023-02-03T20:57:54.526Z,99662.00
2023-02-03T21:00:26.050Z,99665.00
2023-02-03T21:03:11.823Z,99651.00
2023-02-03T21:05:42.895Z,99693.00
2023-02-03T21:08:16.768Z,99714.00
2023-02-03T21:10:46.245Z,99710.00
2023-02-03T21:13:29.116Z,99726.00
2023-02-03T21:16:03.135Z,99739.00
2023-02-03T21:18:32.911Z,99729.00
2023-02-03T21:21:01.035Z,99740.00
2023-02-03T21:23:42.063Z,99755.00
2023-02-03T21:26:25.443Z,99758.00
2023-02-03T21:28:59.034Z,99773.00
2023-02-03T21:31:33.892Z,99746.00
2023-02-03T21:34:05.778Z,99774.00
2023-02-03T21:36:37.908Z,99769.00
2023-02-03T21:39:27.825Z,99775.00
2023-02-03T21:41:56.130Z,99809.00
2023-02-03T21:44:36.072Z,99827.00
2023-02-03T21:47:15.145Z,99850.00
2023-02-03T21:49:42.694Z,99858.00
2023-02-03T21:52:16.296Z,99865.00
2023-02-03T21:54:44.385Z,99869.00
2023-02-03T21:57:15.372Z,99884.00
2023-02-03T21:59:48.740Z,99869.00
2023-02-03T22:03:00.966Z,99913.00
2023-02-03T22:05:30.122Z,99877.00
2023-02-03T22:07:57.657Z,99932.00
2023-02-03T22:10:25.074Z,99924.00
2023-02-03T22:12:52.605Z,99946.00
2023-02-03T22:15:22.981Z,99951.00
2023-02-03T22:17:51.022Z,99961.00
2023-02-03T22:20:18.472Z,99954.00
2023-02-03T22:22:45.366Z,99969.00
2023-02-03T22:25:12.463Z,99972.00
2023-02-03T22:27:39.331Z,99982.00
2023-02-03T22:30:07.103Z,99991.00
2023-02-03T22:32:34.227Z,100013.00
2023-02-03T22:35:01.103Z,100022.00
2023-02-03T22:37:28.350Z,100033.00
2023-02-03T22:39:55.250Z,100045.00
2023-02-03T22:42:22.339Z,100046.00
2023-02-03T22:44:49.317Z,100041.00
2023-02-03T22:47:16.288Z,100056.00
2023-02-03T22:49:43.140Z,100065.00
2023-02-03T22:52:10.140Z,100082.00
2023-02-03T22:54:37.009Z,100090.00
2023-02-03T22:57:03.876Z,100102.00
2023-02-03T22:59:30.742Z,100083.00
2023-02-03T23:01:57.570Z,100107.00
2023-02-03T23:04:24.501Z,100118.00
2023-02-03T23:06:51.390Z,100118.00
2023-02-03T23:09:18.361Z,100131.00
2023-02-03T23:11:45.378Z,100139.00
2023-02-03T23:14:13.724Z,100151.00
2023-02-03T23:16:40.541Z,100124.00
2023-02-03T23:19:07.355Z,100161.00
2023-02-03T23:21:34.328Z,100175.00
2023-02-03T23:24:01.229Z,100178.00
2023-02-03T23:26:28.127Z,100188.00
2023-02-03T23:28:55.007Z,100205.00
2023-02-03T23:31:21.912Z,100217.00
2023-02-03T23:34:07.156Z,100227.00
2023-02-03T23:36:34.116Z,100239.00
2023-02-03T23:39:00.972Z,100255.00
2023-02-03T23:41:27.944Z,100264.00
2023-02-03T23:43:54.778Z,100259.00
2023-02-03T23:46:21.715Z,100256.00
2023-02-03T23:48:48.595Z,100288.00
2023-02-03T23:51:15.437Z,100283.00
2023-02-03T23:53:42.288Z,100308.00
2023-02-03T23:56:09.140Z,100303.00
2023-02-03T23:58:35.967Z,100309.00
